sensor_id;sensor_type;location;lat;lon;timestamp;P1;P2;P0
43180;PMS7003;28798;54.950;26.362;2022-10-14T00:03:58;0.4;0.4;0.3
43180;PMS7003;28798;54.950;26.362;2022-10-14T00:18:46;1.8;1.3;1.2
43180;PMS7003;28798;54.950;26.362;2022-10-14T00:23:38;1.8;1.3;1.2
43180;PMS7003;28798;54.950;26.362;2022-10-14T00:28:57;1.6;1.6;1
43180;PMS7003;28798;54.950;26.362;2022-10-14T00:33:38;1.6;1.6;1
43180;PMS7003;28798;54.950;26.362;2022-10-14T00:48:48;1.6;1.6;1
43180;PMS7003;28798;54.950;26.362;2022-10-14T00:53:56;1.3;1.2;0.7
43180;PMS7003;28798;54.950;26.362;2022-10-14T00:58:38;1.3;1.2;0.7
43180;PMS7003;28798;54.950;26.362;2022-10-14T01:03:58;0.8;0.8;0.5
43180;PMS7003;28798;54.950;26.362;2022-10-14T01:13:39;0.8;0.8;0.5
43180;PMS7003;28798;54.950;26.362;2022-10-14T01:18:57;1.5;1.5;0.9
43180;PMS7003;28798;54.950;26.362;2022-10-14T01:23:48;0.7;0.7;0.3
43180;PMS7003;28798;54.950;26.362;2022-10-14T01:29:02;0.7;0.7;0.4
43180;PMS7003;28798;54.950;26.362;2022-10-14T01:33:39;0.7;0.7;0.4
43180;PMS7003;28798;54.950;26.362;2022-10-14T01:43:49;0.6;0.6;0.2
43180;PMS7003;28798;54.950;26.362;2022-10-14T01:48:59;0.6;0.6;0.4
43180;PMS7003;28798;54.950;26.362;2022-10-14T01:53:59;0.6;0.6;0.4
43180;PMS7003;28798;54.950;26.362;2022-10-14T01:58:46;0.4;0.4;0
43180;PMS7003;28798;54.950;26.362;2022-10-14T02:03:39;0.4;0.4;0
43180;PMS7003;28798;54.950;26.362;2022-10-14T02:13:42;1.7;0.9;0.9
43180;PMS7003;28798;54.950;26.362;2022-10-14T02:18:55;1.7;0.9;0.9
43180;PMS7003;28798;54.950;26.362;2022-10-14T02:23:47;1.7;0.9;0.9
43180;PMS7003;28798;54.950;26.362;2022-10-14T02:28:38;1.7;0.9;0.9
43180;PMS7003;28798;54.950;26.362;2022-10-14T02:33:39;0.4;0.4;0.1
43180;PMS7003;28798;54.950;26.362;2022-10-14T02:38:58;0.4;0.4;0.1
43180;PMS7003;28798;54.950;26.362;2022-10-14T02:44:00;0.9;0.6;0.6
43180;PMS7003;28798;54.950;26.362;2022-10-14T02:48:48;0.9;0.6;0.6
43180;PMS7003;28798;54.950;26.362;2022-10-14T02:53:48;0.9;0.6;0.6
43180;PMS7003;28798;54.950;26.362;2022-10-14T02:58:46;0.5;0.5;0.2
43180;PMS7003;28798;54.950;26.362;2022-10-14T03:03:38;0.9;0.9;0.8
43180;PMS7003;28798;54.950;26.362;2022-10-14T03:18:48;1.3;1;0.8
43180;PMS7003;28798;54.950;26.362;2022-10-14T03:23:50;1.3;1;0.8
43180;PMS7003;28798;54.950;26.362;2022-10-14T03:28:56;0.7;0.7;0.5
43180;PMS7003;28798;54.950;26.362;2022-10-14T03:33:38;0.7;0.7;0.5
43180;PMS7003;28798;54.950;26.362;2022-10-14T03:43:58;0.9;0.6;0.2
43180;PMS7003;28798;54.950;26.362;2022-10-14T03:48:56;0.9;0.6;0.2
43180;PMS7003;28798;54.950;26.362;2022-10-14T03:53:58;0.9;0.6;0.2
43180;PMS7003;28798;54.950;26.362;2022-10-14T03:58:38;0.9;0.6;0.2
43180;PMS7003;28798;54.950;26.362;2022-10-14T04:03:38;0.7;0.7;0.7
43180;PMS7003;28798;54.950;26.362;2022-10-14T04:09:08;0.7;0.7;0.7
43180;PMS7003;28798;54.950;26.362;2022-10-14T04:13:38;0.7;0.7;0.7
43180;PMS7003;28798;54.950;26.362;2022-10-14T04:18:38;0.7;0.7;0.7
43180;PMS7003;28798;54.950;26.362;2022-10-14T04:39:00;0.7;0.7;0.7
43180;PMS7003;28798;54.950;26.362;2022-10-14T04:43:54;0.9;0.9;0.4
43180;PMS7003;28798;54.950;26.362;2022-10-14T04:48:48;0.9;0.9;0.4
43180;PMS7003;28798;54.950;26.362;2022-10-14T04:53:38;0.9;0.9;0.4
43180;PMS7003;28798;54.950;26.362;2022-10-14T04:58:38;0.9;0.9;0.4
43180;PMS7003;28798;54.950;26.362;2022-10-14T05:03:38;0.6;0.6;0.2
43180;PMS7003;28798;54.950;26.362;2022-10-14T05:33:56;1.1;0.4;0.4
43180;PMS7003;28798;54.950;26.362;2022-10-14T05:48:48;1.1;0.4;0.4
43180;PMS7003;28798;54.950;26.362;2022-10-14T05:53:48;1.9;1.9;1.8
43180;PMS7003;28798;54.950;26.362;2022-10-14T05:58:58;1.9;1.9;1.8
43180;PMS7003;28798;54.950;26.362;2022-10-14T06:03:38;2.7;2.1;1.8
43180;PMS7003;28798;54.950;26.362;2022-10-14T06:19:06;1.2;1.2;0.9
43180;PMS7003;28798;54.950;26.362;2022-10-14T06:23:48;3.6;3.3;2.1
43180;PMS7003;28798;54.950;26.362;2022-10-14T06:29:10;1.7;1.7;1.6
43180;PMS7003;28798;54.950;26.362;2022-10-14T06:33:58;1.8;1.8;1.2
43180;PMS7003;28798;54.950;26.362;2022-10-14T06:38:38;1.8;1.8;1.2
43180;PMS7003;28798;54.950;26.362;2022-10-14T06:43:58;2.1;2.1;1.8
43180;PMS7003;28798;54.950;26.362;2022-10-14T06:48:38;2.1;2.1;1.8
43180;PMS7003;28798;54.950;26.362;2022-10-14T06:54:08;2.1;2.1;1.8
43180;PMS7003;28798;54.950;26.362;2022-10-14T06:58:46;2.6;2.6;2.2
43180;PMS7003;28798;54.950;26.362;2022-10-14T07:03:50;2.6;2.6;2.2
43180;PMS7003;28798;54.950;26.362;2022-10-14T07:08:58;3.3;1.8;1.1
43180;PMS7003;28798;54.950;26.362;2022-10-14T07:13:38;6.4;6.4;4.6
43180;PMS7003;28798;54.950;26.362;2022-10-14T07:18:46;4.3;4.3;3.3
43180;PMS7003;28798;54.950;26.362;2022-10-14T07:23:38;4.3;4.3;3.9
43180;PMS7003;28798;54.950;26.362;2022-10-14T07:28:39;4.3;4;3.2
43180;PMS7003;28798;54.950;26.362;2022-10-14T07:33:48;1.8;1.2;0.8
43180;PMS7003;28798;54.950;26.362;2022-10-14T07:43:49;3.7;3.7;3.3
43180;PMS7003;28798;54.950;26.362;2022-10-14T07:48:46;3.7;3.7;3.3
43180;PMS7003;28798;54.950;26.362;2022-10-14T07:53:38;4.3;4.3;3.7
43180;PMS7003;28798;54.950;26.362;2022-10-14T07:58:48;4.3;4.3;3.7
43180;PMS7003;28798;54.950;26.362;2022-10-14T08:03:38;3.5;3.5;1.8
43180;PMS7003;28798;54.950;26.362;2022-10-14T08:08:54;5;4.6;4.2
43180;PMS7003;28798;54.950;26.362;2022-10-14T08:13:49;5;4.6;4.2
43180;PMS7003;28798;54.950;26.362;2022-10-14T08:18:43;3.1;3.1;2.6
43180;PMS7003;28798;54.950;26.362;2022-10-14T08:23:48;3.1;3.1;2.6
43180;PMS7003;28798;54.950;26.362;2022-10-14T08:29:01;5.8;5.6;4.4
43180;PMS7003;28798;54.950;26.362;2022-10-14T08:33:50;3.6;3.6;2.9
43180;PMS7003;28798;54.950;26.362;2022-10-14T08:38:38;3.6;3.6;2.9
43180;PMS7003;28798;54.950;26.362;2022-10-14T08:44:01;4.8;4.6;3.9
43180;PMS7003;28798;54.950;26.362;2022-10-14T08:48:46;4.9;4.9;3.5
43180;PMS7003;28798;54.950;26.362;2022-10-14T08:53:39;4.9;4.9;3.5
43180;PMS7003;28798;54.950;26.362;2022-10-14T08:58:59;4.1;3.8;2.6
43180;PMS7003;28798;54.950;26.362;2022-10-14T09:03:57;4.4;4.4;3.1
43180;PMS7003;28798;54.950;26.362;2022-10-14T09:08:40;2.9;2.6;1.9
43180;PMS7003;28798;54.950;26.362;2022-10-14T09:13:49;4.4;4.4;3.9
43180;PMS7003;28798;54.950;26.362;2022-10-14T09:18:39;4.4;4.4;3.9
43180;PMS7003;28798;54.950;26.362;2022-10-14T09:23:38;4.4;4.4;3.9
43180;PMS7003;28798;54.950;26.362;2022-10-14T09:28:39;2.8;2.8;2.5
43180;PMS7003;28798;54.950;26.362;2022-10-14T09:33:56;4.7;4.7;3.4
43180;PMS7003;28798;54.950;26.362;2022-10-14T09:48:47;4.7;4.7;3.4
43180;PMS7003;28798;54.950;26.362;2022-10-14T09:53:49;3.7;3.3;3.1
43180;PMS7003;28798;54.950;26.362;2022-10-14T09:58:41;5.3;5.1;3.8
43180;PMS7003;28798;54.950;26.362;2022-10-14T10:04:23;5.3;5.1;3.8
43180;PMS7003;28798;54.950;26.362;2022-10-14T10:13:48;4.7;4.2;3.2
43180;PMS7003;28798;54.950;26.362;2022-10-14T10:18:38;4.7;4.2;3.2
43180;PMS7003;28798;54.950;26.362;2022-10-14T10:23:49;4.7;4.2;3.2
43180;PMS7003;28798;54.950;26.362;2022-10-14T10:28:47;4.3;4.3;3.3
43180;PMS7003;28798;54.950;26.362;2022-10-14T10:33:40;2.4;1.8;1.2
43180;PMS7003;28798;54.950;26.362;2022-10-14T10:38:56;4.6;4.6;2.9
43180;PMS7003;28798;54.950;26.362;2022-10-14T10:43:50;5.7;5.6;3.4
43180;PMS7003;28798;54.950;26.362;2022-10-14T10:49:03;2.7;2.7;2
43180;PMS7003;28798;54.950;26.362;2022-10-14T10:53:58;2.7;2.7;2
43180;PMS7003;28798;54.950;26.362;2022-10-14T10:58:39;2.7;2.7;2
43180;PMS7003;28798;54.950;26.362;2022-10-14T11:03:43;1.9;1.9;1.5
43180;PMS7003;28798;54.950;26.362;2022-10-14T11:09:01;1.9;1.9;1.5
43180;PMS7003;28798;54.950;26.362;2022-10-14T11:13:49;2.8;2.8;2.1
43180;PMS7003;28798;54.950;26.362;2022-10-14T11:18:40;2.8;2.8;2.1
43180;PMS7003;28798;54.950;26.362;2022-10-14T11:23:42;3;3;2.4
43180;PMS7003;28798;54.950;26.362;2022-10-14T11:28:49;3;3;2.4
43180;PMS7003;28798;54.950;26.362;2022-10-14T11:33:44;4.5;3.5;3.1
43180;PMS7003;28798;54.950;26.362;2022-10-14T11:38:42;2.5;2.5;2.1
43180;PMS7003;28798;54.950;26.362;2022-10-14T11:43:49;3.2;3.2;2.8
43180;PMS7003;28798;54.950;26.362;2022-10-14T11:48:47;2.3;2.3;2.1
43180;PMS7003;28798;54.950;26.362;2022-10-14T11:54:09;2.8;2.8;2.3
43180;PMS7003;28798;54.950;26.362;2022-10-14T11:58:38;2.9;2.9;1.9
43180;PMS7003;28798;54.950;26.362;2022-10-14T12:03:42;2.8;2.8;2.4
43180;PMS7003;28798;54.950;26.362;2022-10-14T12:13:56;2.8;2.8;2.4
43180;PMS7003;28798;54.950;26.362;2022-10-14T12:18:39;4.6;4.6;3.7
43180;PMS7003;28798;54.950;26.362;2022-10-14T12:23:40;4.6;4.6;3.7
43180;PMS7003;28798;54.950;26.362;2022-10-14T12:28:49;6.7;6.7;5.3
43180;PMS7003;28798;54.950;26.362;2022-10-14T12:34:30;4.7;4.5;3.8
43180;PMS7003;28798;54.950;26.362;2022-10-14T12:38:38;4.7;4.5;3.8
43180;PMS7003;28798;54.950;26.362;2022-10-14T12:43:57;5.1;5.1;4.2
43180;PMS7003;28798;54.950;26.362;2022-10-14T12:48:49;6.3;5.8;3.8
43180;PMS7003;28798;54.950;26.362;2022-10-14T12:53:39;5.4;5.3;3.8
43180;PMS7003;28798;54.950;26.362;2022-10-14T12:58:40;5.3;5.3;4.2
43180;PMS7003;28798;54.950;26.362;2022-10-14T13:03:53;5.4;5.3;3.7
43180;PMS7003;28798;54.950;26.362;2022-10-14T13:08:38;5.9;5.5;4.1
43180;PMS7003;28798;54.950;26.362;2022-10-14T13:14:18;6.3;5.9;5.1
43180;PMS7003;28798;54.950;26.362;2022-10-14T13:19:36;6.3;5.9;5.1
43180;PMS7003;28798;54.950;26.362;2022-10-14T13:23:39;4.8;4.8;3
43180;PMS7003;28798;54.950;26.362;2022-10-14T13:29:02;6.4;5.8;4.4
43180;PMS7003;28798;54.950;26.362;2022-10-14T13:34:01;7.3;6.4;5.3
43180;PMS7003;28798;54.950;26.362;2022-10-14T13:38:40;8;7.6;6.8
43180;PMS7003;28798;54.950;26.362;2022-10-14T13:43:59;6.8;6.5;5.7
43180;PMS7003;28798;54.950;26.362;2022-10-14T13:48:39;7.7;7.3;5.8
43180;PMS7003;28798;54.950;26.362;2022-10-14T13:53:47;7.9;7.6;6.2
43180;PMS7003;28798;54.950;26.362;2022-10-14T13:58:58;6.1;6.1;3.7
43180;PMS7003;28798;54.950;26.362;2022-10-14T14:03:59;6.6;6.6;5.1
43180;PMS7003;28798;54.950;26.362;2022-10-14T14:14:12;7.4;7.4;6.6
43180;PMS7003;28798;54.950;26.362;2022-10-14T14:18:45;7.7;7.1;5.5
43180;PMS7003;28798;54.950;26.362;2022-10-14T14:23:47;5.6;5.6;4.6
43180;PMS7003;28798;54.950;26.362;2022-10-14T14:28:48;6.6;6.5;5.1
43180;PMS7003;28798;54.950;26.362;2022-10-14T14:33:39;5.3;5.3;4.8
43180;PMS7003;28798;54.950;26.362;2022-10-14T14:38:59;5.3;5.3;4.8
43180;PMS7003;28798;54.950;26.362;2022-10-14T14:43:39;4.8;4.8;3.9
43180;PMS7003;28798;54.950;26.362;2022-10-14T14:48:39;4.8;4.8;3.9
43180;PMS7003;28798;54.950;26.362;2022-10-14T14:53:39;5.4;5.3;4.5
43180;PMS7003;28798;54.950;26.362;2022-10-14T14:58:41;4.5;4.2;2.8
43180;PMS7003;28798;54.950;26.362;2022-10-14T15:03:50;5.4;5.4;4.3
43180;PMS7003;28798;54.950;26.362;2022-10-14T15:13:59;4.1;3.6;3
43180;PMS7003;28798;54.950;26.362;2022-10-14T15:18:39;5.6;5.2;4.4
43180;PMS7003;28798;54.950;26.362;2022-10-14T15:23:40;5.6;5.2;4.4
43180;PMS7003;28798;54.950;26.362;2022-10-14T15:28:39;4.8;4.8;4.3
43180;PMS7003;28798;54.950;26.362;2022-10-14T15:33:39;5.3;5.1;4.4
43180;PMS7003;28798;54.950;26.362;2022-10-14T15:38:45;5.3;5.3;4.3
43180;PMS7003;28798;54.950;26.362;2022-10-14T15:43:39;5.3;5.3;4.3
43180;PMS7003;28798;54.950;26.362;2022-10-14T15:48:50;5.3;5.1;4.4
43180;PMS7003;28798;54.950;26.362;2022-10-14T15:53:39;5.3;5.1;4.4
43180;PMS7003;28798;54.950;26.362;2022-10-14T15:58:49;5.6;5.6;4.4
43180;PMS7003;28798;54.950;26.362;2022-10-14T16:03:49;5.4;4.9;3.4
43180;PMS7003;28798;54.950;26.362;2022-10-14T16:18:39;5.4;4.9;3.4
43180;PMS7003;28798;54.950;26.362;2022-10-14T16:23:39;5.1;4.9;4.4
43180;PMS7003;28798;54.950;26.362;2022-10-14T16:28:47;5.1;4.9;4.4
43180;PMS7003;28798;54.950;26.362;2022-10-14T16:33:49;5.3;5.3;4.7
43180;PMS7003;28798;54.950;26.362;2022-10-14T16:38:59;5.3;5.3;4.7
43180;PMS7003;28798;54.950;26.362;2022-10-14T16:43:39;4.4;4.4;3.8
43180;PMS7003;28798;54.950;26.362;2022-10-14T16:49:01;4.4;4.4;3.8
43180;PMS7003;28798;54.950;26.362;2022-10-14T16:53:39;4.4;4.4;3.8
43180;PMS7003;28798;54.950;26.362;2022-10-14T16:58:49;4.8;4.5;3.5
43180;PMS7003;28798;54.950;26.362;2022-10-14T17:03:39;4.8;4.5;3.5
43180;PMS7003;28798;54.950;26.362;2022-10-14T17:08:49;4.8;4.5;3.5
43180;PMS7003;28798;54.950;26.362;2022-10-14T17:13:49;4.8;4.5;3.5
43180;PMS7003;28798;54.950;26.362;2022-10-14T17:18:39;4.5;4.2;3.6
43180;PMS7003;28798;54.950;26.362;2022-10-14T17:23:57;4.5;4.2;3.6
43180;PMS7003;28798;54.950;26.362;2022-10-14T17:28:39;4.5;4.2;3.6
43180;PMS7003;28798;54.950;26.362;2022-10-14T17:33:49;5.2;5.2;4.6
43180;PMS7003;28798;54.950;26.362;2022-10-14T17:38:49;5.2;5.2;4.6
43180;PMS7003;28798;54.950;26.362;2022-10-14T17:43:59;5;5;4.1
43180;PMS7003;28798;54.950;26.362;2022-10-14T17:48:40;5;5;4.1
43180;PMS7003;28798;54.950;26.362;2022-10-14T17:53:39;5;5;4.1
43180;PMS7003;28798;54.950;26.362;2022-10-14T17:58:39;5;5;4.1
43180;PMS7003;28798;54.950;26.362;2022-10-14T18:03:39;4.5;4.5;4.1
43180;PMS7003;28798;54.950;26.362;2022-10-14T18:13:39;3.8;3.8;3.1
43180;PMS7003;28798;54.950;26.362;2022-10-14T18:19:00;3.8;3.8;3.2
43180;PMS7003;28798;54.950;26.362;2022-10-14T18:23:39;3.8;3.8;3.2
43180;PMS7003;28798;54.950;26.362;2022-10-14T18:28:50;3.8;3.8;3.2
43180;PMS7003;28798;54.950;26.362;2022-10-14T18:33:39;3.5;3.5;3
43180;PMS7003;28798;54.950;26.362;2022-10-14T18:53:49;7.8;5.8;3.7
43180;PMS7003;28798;54.950;26.362;2022-10-14T18:58:47;2.8;2.6;1.9
43180;PMS7003;28798;54.950;26.362;2022-10-14T19:03:39;2.8;2.6;1.9
43180;PMS7003;28798;54.950;26.362;2022-10-14T19:13:57;3.2;3.2;2.4
43180;PMS7003;28798;54.950;26.362;2022-10-14T19:18:50;2.9;2.9;2.5
43180;PMS7003;28798;54.950;26.362;2022-10-14T19:23:39;2.9;2.9;2.5
43180;PMS7003;28798;54.950;26.362;2022-10-14T19:28:39;4.3;4.2;2.9
43180;PMS7003;28798;54.950;26.362;2022-10-14T19:33:39;4.3;4.2;2.9
43180;PMS7003;28798;54.950;26.362;2022-10-14T19:54:01;4.3;4.2;2.9
43180;PMS7003;28798;54.950;26.362;2022-10-14T19:59:03;3.3;3.3;1.6
43180;PMS7003;28798;54.950;26.362;2022-10-14T20:03:39;3.3;3.3;1.6
43180;PMS7003;28798;54.950;26.362;2022-10-14T20:09:09;3.7;3.4;2
43180;PMS7003;28798;54.950;26.362;2022-10-14T20:13:39;3.1;2.3;2
43180;PMS7003;28798;54.950;26.362;2022-10-14T20:18:47;3.1;2.3;2
43180;PMS7003;28798;54.950;26.362;2022-10-14T20:23:57;3.1;2.3;2
43180;PMS7003;28798;54.950;26.362;2022-10-14T20:28:39;2.7;2.7;1.7
43180;PMS7003;28798;54.950;26.362;2022-10-14T20:33:39;4.5;4.3;3.7
43180;PMS7003;28798;54.950;26.362;2022-10-14T20:48:51;4.5;4.3;3.7
43180;PMS7003;28798;54.950;26.362;2022-10-14T20:53:49;3.6;3.6;2.8
43180;PMS7003;28798;54.950;26.362;2022-10-14T20:58:52;3.6;3.6;2.8
43180;PMS7003;28798;54.950;26.362;2022-10-14T21:03:39;3.6;3.6;2.8
43180;PMS7003;28798;54.950;26.362;2022-10-14T21:23:49;9.6;7.3;5.3
43180;PMS7003;28798;54.950;26.362;2022-10-14T21:28:47;5.7;5.7;5.2
43180;PMS7003;28798;54.950;26.362;2022-10-14T21:33:54;5.7;5.7;5.2
43180;PMS7003;28798;54.950;26.362;2022-10-14T21:43:39;5.7;5.7;5.2
43180;PMS7003;28798;54.950;26.362;2022-10-14T21:48:57;3.5;3.5;2.9
43180;PMS7003;28798;54.950;26.362;2022-10-14T21:53:39;3.5;3.5;2.9
43180;PMS7003;28798;54.950;26.362;2022-10-14T21:58:59;3.5;3.5;2.9
43180;PMS7003;28798;54.950;26.362;2022-10-14T22:03:39;3.5;3.5;2.9
43180;PMS7003;28798;54.950;26.362;2022-10-14T22:34:01;3.5;3.5;3.1
43180;PMS7003;28798;54.950;26.362;2022-10-14T22:53:47;5.7;5.7;3.8
43180;PMS7003;28798;54.950;26.362;2022-10-14T22:58:39;4.6;4.6;3.8
43180;PMS7003;28798;54.950;26.362;2022-10-14T23:03:50;4.6;4.6;3.8
43180;PMS7003;28798;54.950;26.362;2022-10-14T23:18:57;6.2;4.8;3.8
43180;PMS7003;28798;54.950;26.362;2022-10-14T23:23:39;5.9;5.2;4.7
43180;PMS7003;28798;54.950;26.362;2022-10-14T23:28:47;5.6;5.6;4
43180;PMS7003;28798;54.950;26.362;2022-10-14T23:33:39;5.3;4.6;3.5
43180;PMS7003;28798;54.950;26.362;2022-10-14T23:38:39;5.3;4.6;3.5
43180;PMS7003;28798;54.950;26.362;2022-10-14T23:43:47;4.3;4.3;3.9
43180;PMS7003;28798;54.950;26.362;2022-10-14T23:48:39;4.3;4.3;3.9
43180;PMS7003;28798;54.950;26.362;2022-10-14T23:54:07;4.3;4.3;3.9
